sensor_id;sensor_type;location;lat;lon;timestamp;temperature;humidity
7494;DHT22;3788;49.902;8.590;2022-09-24T00:01:42;13.10;97.30
7494;DHT22;3788;49.902;8.590;2022-09-24T00:04:11;13.10;97.40
7494;DHT22;3788;49.902;8.590;2022-09-24T00:06:39;13.10;97.40
7494;DHT22;3788;49.902;8.590;2022-09-24T00:09:06;13.10;97.40
7494;DHT22;3788;49.902;8.590;2022-09-24T00:11:33;13.10;97.40
7494;DHT22;3788;49.902;8.590;2022-09-24T00:14:00;13.10;97.50
7494;DHT22;3788;49.902;8.590;2022-09-24T00:16:29;13.10;97.50
7494;DHT22;3788;49.902;8.590;2022-09-24T00:18:58;13.10;97.50
7494;DHT22;3788;49.902;8.590;2022-09-24T00:21:28;13.10;97.80
7494;DHT22;3788;49.902;8.590;2022-09-24T00:23:58;13.10;97.40
7494;DHT22;3788;49.902;8.590;2022-09-24T00:26:25;13.10;97.50
7494;DHT22;3788;49.902;8.590;2022-09-24T00:29:12;13.10;97.60
7494;DHT22;3788;49.902;8.590;2022-09-24T00:31:39;13.00;97.60
7494;DHT22;3788;49.902;8.590;2022-09-24T00:34:06;13.00;97.70
7494;DHT22;3788;49.902;8.590;2022-09-24T00:36:34;13.00;97.70
7494;DHT22;3788;49.902;8.590;2022-09-24T00:39:01;13.00;97.70
7494;DHT22;3788;49.902;8.590;2022-09-24T00:41:30;13.00;97.70
7494;DHT22;3788;49.902;8.590;2022-09-24T00:43:58;13.00;97.80
7494;DHT22;3788;49.902;8.590;2022-09-24T00:46:28;13.00;97.70
7494;DHT22;3788;49.902;8.590;2022-09-24T00:48:59;13.10;97.80
7494;DHT22;3788;49.902;8.590;2022-09-24T00:51:27;13.10;97.70
7494;DHT22;3788;49.902;8.590;2022-09-24T00:53:59;13.20;97.60
7494;DHT22;3788;49.902;8.590;2022-09-24T00:56:28;13.20;97.50
7494;DHT22;3788;49.902;8.590;2022-09-24T00:58:56;13.20;97.50
7494;DHT22;3788;49.902;8.590;2022-09-24T01:01:25;13.10;97.60
7494;DHT22;3788;49.902;8.590;2022-09-24T01:03:55;13.10;97.60
7494;DHT22;3788;49.902;8.590;2022-09-24T01:06:22;13.10;97.60
7494;DHT22;3788;49.902;8.590;2022-09-24T01:08:50;13.10;97.50
7494;DHT22;3788;49.902;8.590;2022-09-24T01:11:29;13.10;97.50
7494;DHT22;3788;49.902;8.590;2022-09-24T01:14:20;13.10;97.50
7494;DHT22;3788;49.902;8.590;2022-09-24T01:16:57;13.00;97.40
7494;DHT22;3788;49.902;8.590;2022-09-24T01:20:00;12.90;97.40
7494;DHT22;3788;49.902;8.590;2022-09-24T01:22:41;12.80;97.50
7494;DHT22;3788;49.902;8.590;2022-09-24T01:25:17;12.60;97.50
7494;DHT22;3788;49.902;8.590;2022-09-24T01:28:00;12.50;97.60
7494;DHT22;3788;49.902;8.590;2022-09-24T01:30:31;12.30;97.70
7494;DHT22;3788;49.902;8.590;2022-09-24T01:33:05;12.30;97.90
7494;DHT22;3788;49.902;8.590;2022-09-24T01:35:35;12.10;97.90
7494;DHT22;3788;49.902;8.590;2022-09-24T01:38:07;12.10;98.00
7494;DHT22;3788;49.902;8.590;2022-09-24T01:40:35;12.00;98.10
7494;DHT22;3788;49.902;8.590;2022-09-24T01:43:04;11.90;98.20
7494;DHT22;3788;49.902;8.590;2022-09-24T01:45:34;11.90;98.20
7494;DHT22;3788;49.902;8.590;2022-09-24T01:48:03;11.90;98.20
7494;DHT22;3788;49.902;8.590;2022-09-24T01:50:34;11.80;98.20
7494;DHT22;3788;49.902;8.590;2022-09-24T01:53:07;11.80;98.20
7494;DHT22;3788;49.902;8.590;2022-09-24T01:55:36;11.80;98.30
7494;DHT22;3788;49.902;8.590;2022-09-24T01:58:07;11.80;98.40
7494;DHT22;3788;49.902;8.590;2022-09-24T02:00:38;11.80;98.40
7494;DHT22;3788;49.902;8.590;2022-09-24T02:03:11;11.80;98.40
7494;DHT22;3788;49.902;8.590;2022-09-24T02:05:42;11.80;98.40
7494;DHT22;3788;49.902;8.590;2022-09-24T02:08:13;11.70;98.40
7494;DHT22;3788;49.902;8.590;2022-09-24T02:10:46;11.70;98.50
7494;DHT22;3788;49.902;8.590;2022-09-24T02:13:17;11.70;98.40
7494;DHT22;3788;49.902;8.590;2022-09-24T02:15:49;11.70;98.40
7494;DHT22;3788;49.902;8.590;2022-09-24T02:18:20;11.70;98.40
7494;DHT22;3788;49.902;8.590;2022-09-24T02:20:50;11.70;98.40
7494;DHT22;3788;49.902;8.590;2022-09-24T02:23:19;11.70;98.30
7494;DHT22;3788;49.902;8.590;2022-09-24T02:25:48;11.60;98.20
7494;DHT22;3788;49.902;8.590;2022-09-24T02:28:18;11.60;98.20
7494;DHT22;3788;49.902;8.590;2022-09-24T02:30:51;11.60;98.30
7494;DHT22;3788;49.902;8.590;2022-09-24T02:33:19;11.60;98.30
7494;DHT22;3788;49.902;8.590;2022-09-24T02:36:05;11.60;98.30
7494;DHT22;3788;49.902;8.590;2022-09-24T02:38:31;11.50;98.30
7494;DHT22;3788;49.902;8.590;2022-09-24T02:40:58;11.50;98.40
7494;DHT22;3788;49.902;8.590;2022-09-24T02:43:25;11.50;98.20
7494;DHT22;3788;49.902;8.590;2022-09-24T02:45:53;11.40;98.20
7494;DHT22;3788;49.902;8.590;2022-09-24T02:48:20;11.30;98.20
7494;DHT22;3788;49.902;8.590;2022-09-24T02:50:46;11.30;98.30
7494;DHT22;3788;49.902;8.590;2022-09-24T02:53:13;11.20;98.30
7494;DHT22;3788;49.902;8.590;2022-09-24T02:55:40;11.20;98.40
7494;DHT22;3788;49.902;8.590;2022-09-24T02:58:07;11.20;98.50
7494;DHT22;3788;49.902;8.590;2022-09-24T03:00:34;11.20;98.70
7494;DHT22;3788;49.902;8.590;2022-09-24T03:03:02;11.10;98.70
7494;DHT22;3788;49.902;8.590;2022-09-24T03:05:29;11.00;98.70
7494;DHT22;3788;49.902;8.590;2022-09-24T03:07:56;10.90;98.80
7494;DHT22;3788;49.902;8.590;2022-09-24T03:10:23;10.90;98.90
7494;DHT22;3788;49.902;8.590;2022-09-24T03:12:50;10.90;99.10
7494;DHT22;3788;49.902;8.590;2022-09-24T03:15:17;10.90;99.10
7494;DHT22;3788;49.902;8.590;2022-09-24T03:17:44;10.90;99.10
7494;DHT22;3788;49.902;8.590;2022-09-24T03:20:12;10.90;99.00
7494;DHT22;3788;49.902;8.590;2022-09-24T03:22:38;10.80;98.90
7494;DHT22;3788;49.902;8.590;2022-09-24T03:25:06;10.80;99.00
7494;DHT22;3788;49.902;8.590;2022-09-24T03:27:33;10.80;99.10
7494;DHT22;3788;49.902;8.590;2022-09-24T03:30:00;10.80;99.00
7494;DHT22;3788;49.902;8.590;2022-09-24T03:32:46;10.80;99.00
7494;DHT22;3788;49.902;8.590;2022-09-24T03:35:15;10.80;98.90
7494;DHT22;3788;49.902;8.590;2022-09-24T03:37:41;10.80;98.90
7494;DHT22;3788;49.902;8.590;2022-09-24T03:40:09;10.80;98.80
7494;DHT22;3788;49.902;8.590;2022-09-24T03:42:36;10.80;98.80
7494;DHT22;3788;49.902;8.590;2022-09-24T03:45:03;10.80;98.80
7494;DHT22;3788;49.902;8.590;2022-09-24T03:47:30;10.80;98.80
7494;DHT22;3788;49.902;8.590;2022-09-24T03:49:57;10.70;99.10
7494;DHT22;3788;49.902;8.590;2022-09-24T03:52:25;10.70;98.80
7494;DHT22;3788;49.902;8.590;2022-09-24T03:54:52;10.70;98.90
7494;DHT22;3788;49.902;8.590;2022-09-24T03:57:19;10.70;99.00
7494;DHT22;3788;49.902;8.590;2022-09-24T03:59:46;10.70;99.00
7494;DHT22;3788;49.902;8.590;2022-09-24T04:02:13;10.70;99.10
7494;DHT22;3788;49.902;8.590;2022-09-24T04:04:40;10.70;99.10
7494;DHT22;3788;49.902;8.590;2022-09-24T04:07:06;10.70;99.20
7494;DHT22;3788;49.902;8.590;2022-09-24T04:09:34;10.80;99.20
7494;DHT22;3788;49.902;8.590;2022-09-24T04:12:01;10.80;99.20
7494;DHT22;3788;49.902;8.590;2022-09-24T04:14:28;10.70;99.20
7494;DHT22;3788;49.902;8.590;2022-09-24T04:16:55;10.70;99.30
7494;DHT22;3788;49.902;8.590;2022-09-24T04:19:21;10.70;99.30
7494;DHT22;3788;49.902;8.590;2022-09-24T04:21:48;10.70;99.40
7494;DHT22;3788;49.902;8.590;2022-09-24T04:24:15;10.80;99.40
7494;DHT22;3788;49.902;8.590;2022-09-24T04:26:43;10.80;99.40
7494;DHT22;3788;49.902;8.590;2022-09-24T04:29:10;10.80;99.30
7494;DHT22;3788;49.902;8.590;2022-09-24T04:31:37;10.80;99.30
7494;DHT22;3788;49.902;8.590;2022-09-24T04:34:05;10.80;99.40
7494;DHT22;3788;49.902;8.590;2022-09-24T04:36:31;10.80;99.40
7494;DHT22;3788;49.902;8.590;2022-09-24T04:38:58;10.80;99.50
7494;DHT22;3788;49.902;8.590;2022-09-24T04:41:25;10.80;99.50
7494;DHT22;3788;49.902;8.590;2022-09-24T04:43:53;10.80;99.50
7494;DHT22;3788;49.902;8.590;2022-09-24T04:46:19;10.80;99.50
7494;DHT22;3788;49.902;8.590;2022-09-24T04:48:46;10.80;99.50
7494;DHT22;3788;49.902;8.590;2022-09-24T04:51:13;10.70;99.40
7494;DHT22;3788;49.902;8.590;2022-09-24T04:53:41;10.70;99.50
7494;DHT22;3788;49.902;8.590;2022-09-24T04:56:07;10.70;99.40
7494;DHT22;3788;49.902;8.590;2022-09-24T04:58:36;10.70;99.40
7494;DHT22;3788;49.902;8.590;2022-09-24T05:01:04;10.70;99.40
7494;DHT22;3788;49.902;8.590;2022-09-24T05:03:31;10.70;99.50
7494;DHT22;3788;49.902;8.590;2022-09-24T05:05:58;10.70;99.50
7494;DHT22;3788;49.902;8.590;2022-09-24T05:08:24;10.60;99.40
7494;DHT22;3788;49.902;8.590;2022-09-24T05:10:51;10.60;99.40
7494;DHT22;3788;49.902;8.590;2022-09-24T05:13:18;10.50;99.50
7494;DHT22;3788;49.902;8.590;2022-09-24T05:15:45;10.50;99.50
7494;DHT22;3788;49.902;8.590;2022-09-24T05:18:13;10.50;99.60
7494;DHT22;3788;49.902;8.590;2022-09-24T05:20:40;10.40;99.50
7494;DHT22;3788;49.902;8.590;2022-09-24T05:23:07;10.40;99.60
7494;DHT22;3788;49.902;8.590;2022-09-24T05:25:33;10.40;99.60
7494;DHT22;3788;49.902;8.590;2022-09-24T05:28:21;10.40;99.50
7494;DHT22;3788;49.902;8.590;2022-09-24T05:30:47;10.30;99.50
7494;DHT22;3788;49.902;8.590;2022-09-24T05:33:15;10.30;99.60
7494;DHT22;3788;49.902;8.590;2022-09-24T05:35:42;10.30;99.60
7494;DHT22;3788;49.902;8.590;2022-09-24T05:38:09;10.30;99.70
7494;DHT22;3788;49.902;8.590;2022-09-24T05:40:35;10.40;99.70
7494;DHT22;3788;49.902;8.590;2022-09-24T05:43:14;10.40;99.70
7494;DHT22;3788;49.902;8.590;2022-09-24T05:45:43;10.50;99.60
7494;DHT22;3788;49.902;8.590;2022-09-24T05:48:09;10.50;99.60
7494;DHT22;3788;49.902;8.590;2022-09-24T05:50:38;10.50;99.60
7494;DHT22;3788;49.902;8.590;2022-09-24T05:53:05;10.70;99.60
7494;DHT22;3788;49.902;8.590;2022-09-24T05:55:31;10.70;99.50
7494;DHT22;3788;49.902;8.590;2022-09-24T05:58:03;10.90;99.50
7494;DHT22;3788;49.902;8.590;2022-09-24T06:00:31;11.00;99.40
7494;DHT22;3788;49.902;8.590;2022-09-24T06:03:02;11.10;99.40
7494;DHT22;3788;49.902;8.590;2022-09-24T06:05:30;11.10;99.30
7494;DHT22;3788;49.902;8.590;2022-09-24T06:08:00;11.20;99.30
7494;DHT22;3788;49.902;8.590;2022-09-24T06:10:27;11.30;99.30
7494;DHT22;3788;49.902;8.590;2022-09-24T06:12:53;11.30;99.10
7494;DHT22;3788;49.902;8.590;2022-09-24T06:15:21;11.40;99.10
7494;DHT22;3788;49.902;8.590;2022-09-24T06:17:48;11.40;99.00
7494;DHT22;3788;49.902;8.590;2022-09-24T06:20:18;11.40;99.00
7494;DHT22;3788;49.902;8.590;2022-09-24T06:22:44;11.50;99.00
7494;DHT22;3788;49.902;8.590;2022-09-24T06:25:12;11.50;98.90
7494;DHT22;3788;49.902;8.590;2022-09-24T06:27:39;11.50;98.90
7494;DHT22;3788;49.902;8.590;2022-09-24T06:30:07;11.50;98.80
7494;DHT22;3788;49.902;8.590;2022-09-24T06:32:34;11.50;98.70
7494;DHT22;3788;49.902;8.590;2022-09-24T06:35:01;11.50;98.70
7494;DHT22;3788;49.902;8.590;2022-09-24T06:37:28;11.50;98.60
7494;DHT22;3788;49.902;8.590;2022-09-24T06:39:54;11.50;98.60
7494;DHT22;3788;49.902;8.590;2022-09-24T06:42:23;11.40;98.60
7494;DHT22;3788;49.902;8.590;2022-09-24T06:44:49;11.40;98.70
7494;DHT22;3788;49.902;8.590;2022-09-24T06:47:16;11.40;98.80
7494;DHT22;3788;49.902;8.590;2022-09-24T06:49:43;11.40;98.80
7494;DHT22;3788;49.902;8.590;2022-09-24T06:52:09;11.50;98.90
7494;DHT22;3788;49.902;8.590;2022-09-24T06:54:36;11.50;98.90
7494;DHT22;3788;49.902;8.590;2022-09-24T06:57:05;11.70;98.90
7494;DHT22;3788;49.902;8.590;2022-09-24T06:59:33;11.80;98.80
7494;DHT22;3788;49.902;8.590;2022-09-24T07:02:00;11.90;98.60
7494;DHT22;3788;49.902;8.590;2022-09-24T07:04:26;12.00;98.60
7494;DHT22;3788;49.902;8.590;2022-09-24T07:06:53;12.10;98.60
7494;DHT22;3788;49.902;8.590;2022-09-24T07:09:46;12.20;98.60
7494;DHT22;3788;49.902;8.590;2022-09-24T07:12:13;12.60;98.70
7494;DHT22;3788;49.902;8.590;2022-09-24T07:14:41;13.20;98.40
7494;DHT22;3788;49.902;8.590;2022-09-24T07:17:07;13.80;97.90
7494;DHT22;3788;49.902;8.590;2022-09-24T07:19:34;14.30;97.20
7494;DHT22;3788;49.902;8.590;2022-09-24T07:22:00;14.60;96.50
7494;DHT22;3788;49.902;8.590;2022-09-24T07:24:27;14.70;96.00
7494;DHT22;3788;49.902;8.590;2022-09-24T07:26:54;14.70;95.80
7494;DHT22;3788;49.902;8.590;2022-09-24T07:29:21;14.80;95.80
7494;DHT22;3788;49.902;8.590;2022-09-24T07:31:49;14.90;95.70
7494;DHT22;3788;49.902;8.590;2022-09-24T07:34:16;15.20;95.40
7494;DHT22;3788;49.902;8.590;2022-09-24T07:36:43;15.40;95.00
7494;DHT22;3788;49.902;8.590;2022-09-24T07:39:09;15.70;94.50
7494;DHT22;3788;49.902;8.590;2022-09-24T07:41:36;15.90;94.30
7494;DHT22;3788;49.902;8.590;2022-09-24T07:44:06;16.40;93.90
7494;DHT22;3788;49.902;8.590;2022-09-24T07:46:33;16.60;93.30
7494;DHT22;3788;49.902;8.590;2022-09-24T07:49:01;16.60;93.00
7494;DHT22;3788;49.902;8.590;2022-09-24T07:51:28;16.70;93.00
7494;DHT22;3788;49.902;8.590;2022-09-24T07:53:55;16.70;92.90
7494;DHT22;3788;49.902;8.590;2022-09-24T07:56:24;16.70;92.80
7494;DHT22;3788;49.902;8.590;2022-09-24T07:58:51;16.80;92.70
7494;DHT22;3788;49.902;8.590;2022-09-24T08:01:18;17.00;92.50
7494;DHT22;3788;49.902;8.590;2022-09-24T08:03:45;17.00;92.20
7494;DHT22;3788;49.902;8.590;2022-09-24T08:06:13;17.00;92.10
7494;DHT22;3788;49.902;8.590;2022-09-24T08:08:40;16.90;92.10
7494;DHT22;3788;49.902;8.590;2022-09-24T08:11:09;16.70;92.10
7494;DHT22;3788;49.902;8.590;2022-09-24T08:13:36;16.50;92.40
7494;DHT22;3788;49.902;8.590;2022-09-24T08:16:03;16.30;92.60
7494;DHT22;3788;49.902;8.590;2022-09-24T08:18:31;16.20;92.80
7494;DHT22;3788;49.902;8.590;2022-09-24T08:21:01;16.00;93.00
7494;DHT22;3788;49.902;8.590;2022-09-24T08:23:30;16.00;93.20
7494;DHT22;3788;49.902;8.590;2022-09-24T08:25:57;15.90;93.50
7494;DHT22;3788;49.902;8.590;2022-09-24T08:28:24;15.80;93.80
7494;DHT22;3788;49.902;8.590;2022-09-24T08:30:51;15.80;94.10
7494;DHT22;3788;49.902;8.590;2022-09-24T08:33:18;15.80;94.40
7494;DHT22;3788;49.902;8.590;2022-09-24T08:35:44;15.90;94.40
7494;DHT22;3788;49.902;8.590;2022-09-24T08:38:11;16.00;94.40
7494;DHT22;3788;49.902;8.590;2022-09-24T08:40:57;16.10;94.40
7494;DHT22;3788;49.902;8.590;2022-09-24T08:43:37;16.30;94.30
7494;DHT22;3788;49.902;8.590;2022-09-24T08:46:11;16.40;94.20
7494;DHT22;3788;49.902;8.590;2022-09-24T08:48:58;16.40;94.20
7494;DHT22;3788;49.902;8.590;2022-09-24T08:51:25;16.40;94.20
7494;DHT22;3788;49.902;8.590;2022-09-24T08:53:57;16.40;94.30
7494;DHT22;3788;49.902;8.590;2022-09-24T08:56:30;16.30;94.40
7494;DHT22;3788;49.902;8.590;2022-09-24T08:58:59;16.40;94.40
7494;DHT22;3788;49.902;8.590;2022-09-24T09:01:34;16.40;94.30
7494;DHT22;3788;49.902;8.590;2022-09-24T09:04:14;16.40;94.30
7494;DHT22;3788;49.902;8.590;2022-09-24T09:07:05;16.40;94.20
7494;DHT22;3788;49.902;8.590;2022-09-24T09:09:43;16.40;94.20
7494;DHT22;3788;49.902;8.590;2022-09-24T09:12:15;16.30;94.30
7494;DHT22;3788;49.902;8.590;2022-09-24T09:14:49;16.20;94.40
7494;DHT22;3788;49.902;8.590;2022-09-24T09:17:29;16.10;94.60
7494;DHT22;3788;49.902;8.590;2022-09-24T09:20:04;16.10;94.70
7494;DHT22;3788;49.902;8.590;2022-09-24T09:22:36;16.10;94.70
7494;DHT22;3788;49.902;8.590;2022-09-24T09:25:16;16.10;94.60
7494;DHT22;3788;49.902;8.590;2022-09-24T09:27:46;16.10;94.60
7494;DHT22;3788;49.902;8.590;2022-09-24T09:30:17;16.10;94.60
7494;DHT22;3788;49.902;8.590;2022-09-24T09:32:59;16.10;94.60
7494;DHT22;3788;49.902;8.590;2022-09-24T09:35:36;16.10;94.70
7494;DHT22;3788;49.902;8.590;2022-09-24T09:38:12;16.10;94.80
7494;DHT22;3788;49.902;8.590;2022-09-24T09:40:48;16.20;94.90
7494;DHT22;3788;49.902;8.590;2022-09-24T09:43:19;16.30;94.80
7494;DHT22;3788;49.902;8.590;2022-09-24T09:45:55;16.50;94.60
7494;DHT22;3788;49.902;8.590;2022-09-24T09:48:28;16.80;94.30
7494;DHT22;3788;49.902;8.590;2022-09-24T09:50:59;17.30;94.10
7494;DHT22;3788;49.902;8.590;2022-09-24T09:53:30;17.80;93.50
7494;DHT22;3788;49.902;8.590;2022-09-24T09:55:59;18.40;92.90
7494;DHT22;3788;49.902;8.590;2022-09-24T09:58:29;19.10;92.20
7494;DHT22;3788;49.902;8.590;2022-09-24T10:01:04;19.80;91.50
7494;DHT22;3788;49.902;8.590;2022-09-24T10:03:46;20.20;90.50
7494;DHT22;3788;49.902;8.590;2022-09-24T10:06:22;20.50;89.50
7494;DHT22;3788;49.902;8.590;2022-09-24T10:08:49;20.40;88.70
7494;DHT22;3788;49.902;8.590;2022-09-24T10:11:16;20.30;88.20
7494;DHT22;3788;49.902;8.590;2022-09-24T10:13:45;20.10;87.90
7494;DHT22;3788;49.902;8.590;2022-09-24T10:16:13;19.90;87.80
7494;DHT22;3788;49.902;8.590;2022-09-24T10:18:42;19.60;88.00
7494;DHT22;3788;49.902;8.590;2022-09-24T10:21:13;19.40;88.30
7494;DHT22;3788;49.902;8.590;2022-09-24T10:23:42;19.30;88.80
7494;DHT22;3788;49.902;8.590;2022-09-24T10:26:10;19.10;89.00
7494;DHT22;3788;49.902;8.590;2022-09-24T10:28:40;19.10;88.90
7494;DHT22;3788;49.902;8.590;2022-09-24T10:31:30;19.10;88.60
7494;DHT22;3788;49.902;8.590;2022-09-24T10:34:00;19.00;88.10
7494;DHT22;3788;49.902;8.590;2022-09-24T10:36:29;19.00;88.20
7494;DHT22;3788;49.902;8.590;2022-09-24T10:39:07;18.90;88.20
7494;DHT22;3788;49.902;8.590;2022-09-24T10:41:37;18.90;88.00
7494;DHT22;3788;49.902;8.590;2022-09-24T10:44:04;18.90;87.70
7494;DHT22;3788;49.902;8.590;2022-09-24T10:47:05;18.80;87.60
7494;DHT22;3788;49.902;8.590;2022-09-24T10:50:02;18.90;87.80
7494;DHT22;3788;49.902;8.590;2022-09-24T10:52:41;18.80;87.90
7494;DHT22;3788;49.902;8.590;2022-09-24T10:55:16;18.80;87.80
7494;DHT22;3788;49.902;8.590;2022-09-24T10:57:49;18.90;87.50
7494;DHT22;3788;49.902;8.590;2022-09-24T11:00:20;18.90;87.30
7494;DHT22;3788;49.902;8.590;2022-09-24T11:06:00;19.20;86.20
7494;DHT22;3788;49.902;8.590;2022-09-24T11:08:43;19.40;85.40
7494;DHT22;3788;49.902;8.590;2022-09-24T11:11:25;19.60;84.70
7494;DHT22;3788;49.902;8.590;2022-09-24T11:14:04;19.70;83.80
7494;DHT22;3788;49.902;8.590;2022-09-24T11:17:00;19.90;83.50
7494;DHT22;3788;49.902;8.590;2022-09-24T11:19:46;20.10;82.30
7494;DHT22;3788;49.902;8.590;2022-09-24T11:22:22;20.20;80.50
7494;DHT22;3788;49.902;8.590;2022-09-24T11:25:08;20.30;80.10
7494;DHT22;3788;49.902;8.590;2022-09-24T11:27:53;20.30;78.80
7494;DHT22;3788;49.902;8.590;2022-09-24T11:30:22;20.30;77.70
7494;DHT22;3788;49.902;8.590;2022-09-24T11:32:59;20.30;77.00
7494;DHT22;3788;49.902;8.590;2022-09-24T11:35:53;20.30;76.60
7494;DHT22;3788;49.902;8.590;2022-09-24T11:38:31;20.20;76.90
7494;DHT22;3788;49.902;8.590;2022-09-24T11:41:12;20.10;76.80
7494;DHT22;3788;49.902;8.590;2022-09-24T11:46:58;20.00;77.10
7494;DHT22;3788;49.902;8.590;2022-09-24T11:49:47;20.00;76.70
7494;DHT22;3788;49.902;8.590;2022-09-24T11:52:24;20.00;76.20
7494;DHT22;3788;49.902;8.590;2022-09-24T11:55:01;20.00;75.90
7494;DHT22;3788;49.902;8.590;2022-09-24T11:57:35;20.00;76.00
7494;DHT22;3788;49.902;8.590;2022-09-24T12:00:04;20.00;76.10
7494;DHT22;3788;49.902;8.590;2022-09-24T12:02:36;20.00;76.20
7494;DHT22;3788;49.902;8.590;2022-09-24T12:05:11;20.00;76.50
7494;DHT22;3788;49.902;8.590;2022-09-24T12:07:47;20.10;76.80
7494;DHT22;3788;49.902;8.590;2022-09-24T12:10:23;20.10;76.60
7494;DHT22;3788;49.902;8.590;2022-09-24T12:12:55;20.20;76.60
7494;DHT22;3788;49.902;8.590;2022-09-24T12:15:26;20.10;76.70
7494;DHT22;3788;49.902;8.590;2022-09-24T12:18:00;20.20;76.90
7494;DHT22;3788;49.902;8.590;2022-09-24T12:20:30;20.20;76.90
7494;DHT22;3788;49.902;8.590;2022-09-24T12:23:00;20.30;77.10
7494;DHT22;3788;49.902;8.590;2022-09-24T12:25:36;20.30;77.20
7494;DHT22;3788;49.902;8.590;2022-09-24T12:28:05;20.40;77.30
7494;DHT22;3788;49.902;8.590;2022-09-24T12:30:39;20.40;77.00
7494;DHT22;3788;49.902;8.590;2022-09-24T12:33:28;20.50;76.80
7494;DHT22;3788;49.902;8.590;2022-09-24T12:36:04;20.60;76.80
7494;DHT22;3788;49.902;8.590;2022-09-24T12:38:35;20.60;76.40
7494;DHT22;3788;49.902;8.590;2022-09-24T12:41:28;20.60;76.60
7494;DHT22;3788;49.902;8.590;2022-09-24T12:44:00;20.60;76.40
7494;DHT22;3788;49.902;8.590;2022-09-24T12:46:31;20.60;76.30
7494;DHT22;3788;49.902;8.590;2022-09-24T12:48:59;20.60;76.40
7494;DHT22;3788;49.902;8.590;2022-09-24T12:51:33;20.50;76.80
7494;DHT22;3788;49.902;8.590;2022-09-24T12:54:05;20.40;77.00
7494;DHT22;3788;49.902;8.590;2022-09-24T12:56:34;20.30;77.30
7494;DHT22;3788;49.902;8.590;2022-09-24T12:59:01;20.30;77.50
7494;DHT22;3788;49.902;8.590;2022-09-24T13:01:31;20.30;77.60
7494;DHT22;3788;49.902;8.590;2022-09-24T13:04:25;20.20;77.60
7494;DHT22;3788;49.902;8.590;2022-09-24T13:06:53;20.30;77.80
7494;DHT22;3788;49.902;8.590;2022-09-24T13:09:33;20.30;78.00
7494;DHT22;3788;49.902;8.590;2022-09-24T13:12:05;20.30;78.20
7494;DHT22;3788;49.902;8.590;2022-09-24T13:14:49;20.40;78.40
7494;DHT22;3788;49.902;8.590;2022-09-24T13:17:17;20.40;78.80
7494;DHT22;3788;49.902;8.590;2022-09-24T13:19:45;20.40;78.90
7494;DHT22;3788;49.902;8.590;2022-09-24T13:22:25;20.40;78.90
7494;DHT22;3788;49.902;8.590;2022-09-24T13:25:08;20.40;78.10
7494;DHT22;3788;49.902;8.590;2022-09-24T13:27:42;20.40;77.60
7494;DHT22;3788;49.902;8.590;2022-09-24T13:30:16;20.40;77.00
7494;DHT22;3788;49.902;8.590;2022-09-24T13:32:50;20.40;75.30
7494;DHT22;3788;49.902;8.590;2022-09-24T13:35:23;20.40;74.60
7494;DHT22;3788;49.902;8.590;2022-09-24T13:37:55;20.40;74.10
7494;DHT22;3788;49.902;8.590;2022-09-24T13:40:27;20.40;74.20
7494;DHT22;3788;49.902;8.590;2022-09-24T13:43:01;20.40;73.30
7494;DHT22;3788;49.902;8.590;2022-09-24T13:45:31;20.30;73.80
7494;DHT22;3788;49.902;8.590;2022-09-24T13:48:02;20.20;73.80
7494;DHT22;3788;49.902;8.590;2022-09-24T13:50:32;20.10;74.70
7494;DHT22;3788;49.902;8.590;2022-09-24T13:53:05;20.00;75.20
7494;DHT22;3788;49.902;8.590;2022-09-24T13:55:35;19.90;75.70
7494;DHT22;3788;49.902;8.590;2022-09-24T13:58:25;19.90;76.20
7494;DHT22;3788;49.902;8.590;2022-09-24T14:00:53;19.80;76.70
7494;DHT22;3788;49.902;8.590;2022-09-24T14:03:24;19.80;77.00
7494;DHT22;3788;49.902;8.590;2022-09-24T14:05:51;19.80;77.20
7494;DHT22;3788;49.902;8.590;2022-09-24T14:08:21;19.70;77.20
7494;DHT22;3788;49.902;8.590;2022-09-24T14:10:49;19.70;77.10
7494;DHT22;3788;49.902;8.590;2022-09-24T14:13:21;19.70;77.20
7494;DHT22;3788;49.902;8.590;2022-09-24T14:15:52;19.60;77.40
7494;DHT22;3788;49.902;8.590;2022-09-24T14:18:19;19.60;77.80
7494;DHT22;3788;49.902;8.590;2022-09-24T14:20:51;19.60;78.20
7494;DHT22;3788;49.902;8.590;2022-09-24T14:23:21;19.50;78.70
7494;DHT22;3788;49.902;8.590;2022-09-24T14:25:50;19.50;79.20
7494;DHT22;3788;49.902;8.590;2022-09-24T14:28:19;19.50;79.90
7494;DHT22;3788;49.902;8.590;2022-09-24T14:30:51;19.50;80.50
7494;DHT22;3788;49.902;8.590;2022-09-24T14:33:20;19.50;81.40
7494;DHT22;3788;49.902;8.590;2022-09-24T14:35:51;19.40;81.60
7494;DHT22;3788;49.902;8.590;2022-09-24T14:38:21;19.30;81.90
7494;DHT22;3788;49.902;8.590;2022-09-24T14:40:51;19.30;82.40
7494;DHT22;3788;49.902;8.590;2022-09-24T14:43:24;19.30;82.90
7494;DHT22;3788;49.902;8.590;2022-09-24T14:46:01;19.20;83.50
7494;DHT22;3788;49.902;8.590;2022-09-24T14:48:30;19.20;84.00
7494;DHT22;3788;49.902;8.590;2022-09-24T14:50:57;19.20;84.70
7494;DHT22;3788;49.902;8.590;2022-09-24T14:53:26;19.30;85.30
7494;DHT22;3788;49.902;8.590;2022-09-24T14:55:54;19.30;85.60
7494;DHT22;3788;49.902;8.590;2022-09-24T14:58:35;19.40;85.90
7494;DHT22;3788;49.902;8.590;2022-09-24T15:01:03;19.50;86.10
7494;DHT22;3788;49.902;8.590;2022-09-24T15:03:38;19.50;86.10
7494;DHT22;3788;49.902;8.590;2022-09-24T15:06:15;19.60;86.40
7494;DHT22;3788;49.902;8.590;2022-09-24T15:08:50;19.60;86.80
7494;DHT22;3788;49.902;8.590;2022-09-24T15:11:17;19.50;87.00
7494;DHT22;3788;49.902;8.590;2022-09-24T15:13:55;19.50;87.00
7494;DHT22;3788;49.902;8.590;2022-09-24T15:16:28;19.50;87.40
7494;DHT22;3788;49.902;8.590;2022-09-24T15:19:03;19.50;87.50
7494;DHT22;3788;49.902;8.590;2022-09-24T15:21:35;19.50;87.50
7494;DHT22;3788;49.902;8.590;2022-09-24T15:24:03;19.50;87.50
7494;DHT22;3788;49.902;8.590;2022-09-24T15:26:33;19.50;88.10
7494;DHT22;3788;49.902;8.590;2022-09-24T15:29:01;19.50;87.40
7494;DHT22;3788;49.902;8.590;2022-09-24T15:31:28;19.50;87.60
7494;DHT22;3788;49.902;8.590;2022-09-24T15:33:56;19.50;87.70
7494;DHT22;3788;49.902;8.590;2022-09-24T15:36:23;19.50;87.70
7494;DHT22;3788;49.902;8.590;2022-09-24T15:38:51;19.50;87.80
7494;DHT22;3788;49.902;8.590;2022-09-24T15:41:18;19.50;87.80
7494;DHT22;3788;49.902;8.590;2022-09-24T15:43:45;19.50;87.80
7494;DHT22;3788;49.902;8.590;2022-09-24T15:46:13;19.50;87.80
7494;DHT22;3788;49.902;8.590;2022-09-24T15:48:40;19.40;87.90
7494;DHT22;3788;49.902;8.590;2022-09-24T15:51:09;19.30;88.00
7494;DHT22;3788;49.902;8.590;2022-09-24T15:53:36;19.30;88.30
7494;DHT22;3788;49.902;8.590;2022-09-24T15:56:03;19.20;88.40
7494;DHT22;3788;49.902;8.590;2022-09-24T15:58:30;19.20;88.90
7494;DHT22;3788;49.902;8.590;2022-09-24T16:00:56;19.10;89.10
7494;DHT22;3788;49.902;8.590;2022-09-24T16:03:26;19.10;89.40
7494;DHT22;3788;49.902;8.590;2022-09-24T16:05:54;19.00;89.80
7494;DHT22;3788;49.902;8.590;2022-09-24T16:08:21;19.00;90.10
7494;DHT22;3788;49.902;8.590;2022-09-24T16:10:48;19.00;90.20
7494;DHT22;3788;49.902;8.590;2022-09-24T16:13:16;18.90;90.30
7494;DHT22;3788;49.902;8.590;2022-09-24T16:15:43;18.90;90.50
7494;DHT22;3788;49.902;8.590;2022-09-24T16:18:13;18.90;90.60
7494;DHT22;3788;49.902;8.590;2022-09-24T16:20:41;18.90;90.80
7494;DHT22;3788;49.902;8.590;2022-09-24T16:23:12;18.90;91.00
7494;DHT22;3788;49.902;8.590;2022-09-24T16:25:40;18.80;91.00
7494;DHT22;3788;49.902;8.590;2022-09-24T16:28:06;18.80;91.10
7494;DHT22;3788;49.902;8.590;2022-09-24T16:30:35;18.80;91.30
7494;DHT22;3788;49.902;8.590;2022-09-24T16:33:04;18.80;91.80